createdAt,value
2022-10-30T00:01:07.551Z,17.95
2022-10-30T00:03:34.646Z,22.10
2022-10-30T00:06:08.008Z,32.63
2022-10-30T00:08:35.204Z,24.65
2022-10-30T00:11:12.069Z,31.38
2022-10-30T00:13:39.523Z,27.20
2022-10-30T00:16:08.199Z,29.33
2022-10-30T00:18:37.957Z,23.85
2022-10-30T00:21:12.054Z,34.28
2022-10-30T00:23:44.762Z,34.28
2022-10-30T00:26:11.888Z,23.98
2022-10-30T00:28:38.994Z,21.83
2022-10-30T00:31:06.749Z,22.23
2022-10-30T00:33:34.367Z,24.55
2022-10-30T00:36:01.594Z,29.85
2022-10-30T00:38:28.735Z,26.80
2022-10-30T00:40:55.856Z,25.38
2022-10-30T00:43:37.804Z,21.48
2022-10-30T00:46:39.526Z,18.65
2022-10-30T00:49:15.923Z,28.77
2022-10-30T00:51:53.285Z,20.90
2022-10-30T00:54:22.843Z,18.08
2022-10-30T00:56:52.314Z,30.70
2022-10-30T00:59:27.695Z,32.67
2022-10-30T01:01:55.826Z,34.97
2022-10-30T01:04:29.003Z,34.22
2022-10-30T01:06:59.408Z,30.13
2022-10-30T01:09:26.960Z,30.77
2022-10-30T01:11:57.508Z,34.10
2022-10-30T01:14:25.119Z,33.80
2022-10-30T01:16:57.856Z,30.08
2022-10-30T01:23:23.354Z,26.15
2022-10-30T01:26:24.683Z,29.08
2022-10-30T01:29:12.822Z,36.28
2022-10-30T01:32:04.207Z,38.03
2022-10-30T01:35:03.930Z,30.65
2022-10-30T01:40:20.631Z,30.25
2022-10-30T01:42:57.821Z,27.75
2022-10-30T01:46:13.747Z,35.30
2022-10-30T01:48:58.901Z,21.23
2022-10-30T01:52:01.988Z,30.40
2022-10-30T01:54:41.162Z,22.48
2022-10-30T01:57:08.121Z,27.15
2022-10-30T02:00:01.936Z,19.20
2022-10-30T02:02:30.724Z,22.35
2022-10-30T02:04:58.886Z,23.10
2022-10-30T02:07:27.281Z,24.35
2022-10-30T02:09:55.260Z,19.92
2022-10-30T02:12:23.603Z,21.52
2022-10-30T02:14:58.323Z,17.65
2022-10-30T02:17:26.786Z,20.58
2022-10-30T02:19:53.971Z,21.00
2022-10-30T02:22:21.248Z,18.92
2022-10-30T02:24:48.535Z,20.08
2022-10-30T02:27:15.661Z,18.65
2022-10-30T02:29:42.745Z,24.23
2022-10-30T02:32:09.874Z,27.75
2022-10-30T02:34:37.095Z,32.33
2022-10-30T02:37:04.258Z,26.42
2022-10-30T02:39:31.435Z,27.60
2022-10-30T02:42:01.318Z,22.58
2022-10-30T02:44:28.658Z,32.33
2022-10-30T02:46:55.762Z,32.58
2022-10-30T02:49:22.938Z,25.05
2022-10-30T02:51:51.530Z,25.37
2022-10-30T02:54:18.677Z,33.63
2022-10-30T02:56:46.298Z,36.33
2022-10-30T02:59:14.981Z,23.73
2022-10-30T03:01:42.865Z,24.23
2022-10-30T03:04:10.188Z,23.75
2022-10-30T03:06:37.448Z,21.75
2022-10-30T03:09:04.593Z,21.30
2022-10-30T03:11:34.527Z,19.50
2022-10-30T03:14:01.574Z,27.58
2022-10-30T03:16:30.101Z,22.02
2022-10-30T03:18:58.226Z,22.50
2022-10-30T03:21:27.612Z,30.35
2022-10-30T03:23:55.801Z,27.35
2022-10-30T03:26:23.210Z,28.42
2022-10-30T03:29:07.522Z,22.25
2022-10-30T03:31:35.666Z,25.70
2022-10-30T03:34:28.833Z,25.67
2022-10-30T03:36:56.000Z,30.88
2022-10-30T03:39:23.079Z,25.08
2022-10-30T03:41:50.234Z,32.53
2022-10-30T03:44:17.900Z,21.92
2022-10-30T03:46:44.997Z,29.80
2022-10-30T03:49:21.535Z,21.20
2022-10-30T03:51:48.756Z,18.52
2022-10-30T03:54:15.831Z,21.83
2022-10-30T03:56:45.522Z,24.23
2022-10-30T03:59:16.224Z,20.92
2022-10-30T04:01:51.140Z,26.52
2022-10-30T04:04:18.543Z,24.98
2022-10-30T04:06:47.411Z,24.55
2022-10-30T04:09:16.027Z,25.17
2022-10-30T04:11:44.451Z,22.20
2022-10-30T04:14:11.601Z,24.27
2022-10-30T04:16:38.722Z,18.48
2022-10-30T04:19:05.977Z,21.67
2022-10-30T04:21:33.150Z,17.13
2022-10-30T04:24:00.251Z,21.80
2022-10-30T04:26:31.110Z,24.17
2022-10-30T04:28:58.247Z,22.48
2022-10-30T04:31:25.884Z,19.63
2022-10-30T04:33:53.151Z,16.27
2022-10-30T04:36:23.720Z,24.88
2022-10-30T04:41:20.547Z,20.48
2022-10-30T04:43:56.591Z,27.58
2022-10-30T04:46:23.785Z,23.80
2022-10-30T04:48:54.518Z,23.80
2022-10-30T04:51:21.756Z,24.52
2022-10-30T04:53:49.107Z,81.28
2022-10-30T04:56:16.477Z,60.88
2022-10-30T04:58:43.605Z,38.13
2022-10-30T05:01:10.854Z,23.67
2022-10-30T05:03:38.214Z,24.80
2022-10-30T05:06:24.358Z,22.73
2022-10-30T05:08:52.088Z,19.58
2022-10-30T05:11:34.569Z,19.67
2022-10-30T05:14:01.789Z,23.70
2022-10-30T05:16:28.979Z,31.13
2022-10-30T05:18:59.061Z,34.85
2022-10-30T05:21:26.326Z,47.95
2022-10-30T05:23:54.504Z,48.35
2022-10-30T05:26:21.932Z,44.90
2022-10-30T05:28:49.138Z,37.58
2022-10-30T05:31:16.390Z,24.23
2022-10-30T05:34:06.145Z,21.90
2022-10-30T05:36:34.692Z,17.50
2022-10-30T05:39:03.530Z,21.17
2022-10-30T05:41:39.095Z,26.35
2022-10-30T05:44:06.442Z,20.75
2022-10-30T05:46:34.160Z,20.50
2022-10-30T05:49:17.999Z,21.33
2022-10-30T05:51:45.625Z,21.33
2022-10-30T05:54:13.012Z,21.38
2022-10-30T05:56:52.864Z,24.08
2022-10-30T05:59:20.179Z,21.17
2022-10-30T06:01:47.380Z,21.40
2022-10-30T06:04:14.848Z,18.65
2022-10-30T06:06:42.954Z,16.75
2022-10-30T06:09:10.046Z,18.92
2022-10-30T06:12:06.935Z,21.27
2022-10-30T06:14:45.020Z,17.60
2022-10-30T06:17:12.858Z,21.15
2022-10-30T06:19:54.848Z,21.85
2022-10-30T06:23:03.955Z,33.50
2022-10-30T06:25:45.471Z,20.98
2022-10-30T06:28:20.419Z,19.05
2022-10-30T06:30:47.609Z,22.42
2022-10-30T06:33:15.107Z,24.33
2022-10-30T06:35:49.130Z,27.40
2022-10-30T06:38:17.233Z,18.92
2022-10-30T06:40:44.741Z,19.27
2022-10-30T06:43:32.083Z,16.85
2022-10-30T06:46:04.586Z,19.42
2022-10-30T06:48:34.765Z,21.55
2022-10-30T06:51:05.101Z,27.70
2022-10-30T06:53:36.498Z,42.40
2022-10-30T06:56:23.841Z,30.20
2022-10-30T06:59:12.794Z,37.30
2022-10-30T07:01:46.114Z,35.17
2022-10-30T07:04:17.908Z,24.52
2022-10-30T07:06:45.231Z,39.45
2022-10-30T07:09:12.577Z,35.80
2022-10-30T07:11:44.973Z,41.38
2022-10-30T07:14:17.888Z,34.95
2022-10-30T07:16:55.284Z,47.85
2022-10-30T07:21:50.278Z,32.03
2022-10-30T07:24:17.835Z,37.45
2022-10-30T07:27:05.769Z,23.13
2022-10-30T07:29:37.072Z,19.63
2022-10-30T07:32:24.400Z,24.83
2022-10-30T07:35:14.495Z,20.63
2022-10-30T07:37:54.183Z,28.70
2022-10-30T07:40:27.698Z,31.63
2022-10-30T07:43:15.479Z,22.33
2022-10-30T07:46:08.813Z,12.65
2022-10-30T07:48:56.342Z,22.50
2022-10-30T07:51:40.977Z,24.65
2022-10-30T07:54:08.483Z,28.15
2022-10-30T07:56:36.232Z,20.80
2022-10-30T07:59:18.508Z,21.17
2022-10-30T08:02:15.536Z,30.88
2022-10-30T08:05:02.300Z,27.80
2022-10-30T08:07:39.938Z,37.78
2022-10-30T08:10:08.203Z,41.05
2022-10-30T08:12:37.689Z,33.25
2022-10-30T08:15:06.665Z,24.95
2022-10-30T08:17:44.984Z,29.27
2022-10-30T08:20:15.851Z,20.00
2022-10-30T08:22:49.871Z,25.40
2022-10-30T08:25:23.943Z,21.05
2022-10-30T08:28:02.661Z,21.08
2022-10-30T08:30:35.846Z,20.83
2022-10-30T08:33:07.601Z,21.67
2022-10-30T08:35:51.191Z,18.23
2022-10-30T08:38:18.717Z,16.23
2022-10-30T08:40:51.646Z,21.70
2022-10-30T08:43:20.059Z,16.33
2022-10-30T08:45:47.535Z,25.93
2022-10-30T08:48:19.192Z,16.40
2022-10-30T08:50:46.534Z,14.85
2022-10-30T08:53:19.946Z,13.95
2022-10-30T08:55:47.236Z,16.17
2022-10-30T08:58:22.702Z,12.90
2022-10-30T09:00:49.904Z,13.35
2022-10-30T09:03:16.955Z,13.40
2022-10-30T09:06:07.175Z,12.10
2022-10-30T09:08:53.097Z,11.90
2022-10-30T09:11:40.425Z,11.95
2022-10-30T09:14:08.283Z,14.85
2022-10-30T09:16:35.419Z,10.98
2022-10-30T09:19:03.059Z,13.63
2022-10-30T09:21:30.363Z,14.43
2022-10-30T09:23:57.650Z,7.60
2022-10-30T09:26:36.775Z,12.95
2022-10-30T09:29:24.269Z,7.32
2022-10-30T09:32:10.039Z,9.90
2022-10-30T09:34:50.548Z,6.20
2022-10-30T09:37:22.700Z,10.93
2022-10-30T09:39:53.136Z,6.82
2022-10-30T09:42:46.306Z,12.70
2022-10-30T09:45:49.863Z,8.20
2022-10-30T09:48:54.532Z,10.02
2022-10-30T09:51:42.567Z,10.48
2022-10-30T09:55:04.518Z,10.45
2022-10-30T09:58:03.284Z,3.10
2022-10-30T10:00:39.692Z,4.82
2022-10-30T10:04:03.575Z,3.85
2022-10-30T10:06:44.188Z,4.07
2022-10-30T10:12:35.196Z,5.65
2022-10-30T10:15:13.782Z,4.13
2022-10-30T10:17:45.505Z,2.85
2022-10-30T10:20:29.525Z,4.35
2022-10-30T10:22:59.413Z,2.22
2022-10-30T10:25:30.003Z,4.40
2022-10-30T10:28:44.734Z,6.75
2022-10-30T10:32:07.624Z,5.88
2022-10-30T10:35:24.759Z,4.05
2022-10-30T10:38:51.962Z,4.88
2022-10-30T10:41:45.244Z,5.32
2022-10-30T10:44:54.615Z,3.80
2022-10-30T10:47:49.393Z,6.80
2022-10-30T10:50:46.071Z,6.97
2022-10-30T10:53:37.953Z,2.25
2022-10-30T10:56:06.024Z,3.50
2022-10-30T10:58:51.346Z,6.73
2022-10-30T11:01:29.515Z,6.68
2022-10-30T11:04:04.876Z,14.15
2022-10-30T11:06:37.825Z,6.43
2022-10-30T11:09:23.415Z,7.13
2022-10-30T11:11:54.739Z,5.93
2022-10-30T11:14:29.470Z,2.15
2022-10-30T11:17:27.944Z,8.43
2022-10-30T11:20:15.429Z,6.18
2022-10-30T11:22:53.133Z,2.28
2022-10-30T11:25:28.532Z,5.00
2022-10-30T11:28:03.854Z,2.55
2022-10-30T11:30:31.627Z,3.47
2022-10-30T11:33:19.293Z,4.95
2022-10-30T11:35:46.466Z,10.48
2022-10-30T11:38:20.759Z,4.50
2022-10-30T11:40:52.188Z,5.10
2022-10-30T11:43:24.894Z,6.32
2022-10-30T11:45:52.606Z,4.80
2022-10-30T11:48:32.140Z,1.85
2022-10-30T11:51:04.125Z,1.35
2022-10-30T11:53:38.007Z,3.08
2022-10-30T11:56:22.276Z,2.45
2022-10-30T11:58:55.058Z,3.55
2022-10-30T12:01:32.630Z,5.38
2022-10-30T12:04:20.802Z,5.50
2022-10-30T12:06:51.346Z,6.32
2022-10-30T12:09:23.084Z,2.83
2022-10-30T12:11:50.572Z,5.07
2022-10-30T12:14:26.963Z,3.53
2022-10-30T12:16:58.243Z,2.47
2022-10-30T12:19:27.170Z,5.38
2022-10-30T12:21:58.326Z,6.88
2022-10-30T12:24:38.258Z,7.55
2022-10-30T12:27:18.074Z,8.35
2022-10-30T12:30:07.814Z,11.32
2022-10-30T12:32:55.009Z,5.78
2022-10-30T12:35:40.735Z,3.00
2022-10-30T12:38:55.343Z,4.45
2022-10-30T12:42:03.633Z,8.38
2022-10-30T12:44:51.311Z,4.25
2022-10-30T12:47:27.106Z,4.35
2022-10-30T12:52:54.213Z,5.22
2022-10-30T12:55:44.743Z,3.22
2022-10-30T12:58:43.526Z,7.63
2022-10-30T13:01:34.208Z,10.30
2022-10-30T13:04:17.263Z,3.42
2022-10-30T13:06:54.239Z,2.53
2022-10-30T13:09:33.345Z,3.92
2022-10-30T13:12:10.225Z,3.47
2022-10-30T13:14:43.930Z,5.35
2022-10-30T13:17:12.859Z,1.45
2022-10-30T13:22:48.140Z,9.93
2022-10-30T13:25:30.304Z,3.30
2022-10-30T13:28:22.741Z,1.63
2022-10-30T13:31:08.823Z,2.50
2022-10-30T13:34:24.731Z,2.75
2022-10-30T13:37:00.834Z,3.33
2022-10-30T13:40:11.003Z,3.70
2022-10-30T13:42:56.046Z,6.07
2022-10-30T13:45:44.081Z,5.00
2022-10-30T13:48:35.889Z,4.78
2022-10-30T13:51:21.753Z,2.25
2022-10-30T13:54:05.258Z,4.45
2022-10-30T13:56:33.848Z,0.98
2022-10-30T13:59:25.417Z,5.55
2022-10-30T14:02:07.243Z,3.63
2022-10-30T14:05:01.118Z,3.60
2022-10-30T14:08:28.114Z,3.85
2022-10-30T14:11:00.594Z,5.72
2022-10-30T14:13:53.993Z,8.95
2022-10-30T14:16:35.114Z,7.90
2022-10-30T14:19:11.657Z,5.35
2022-10-30T14:21:44.452Z,3.70
2022-10-30T14:24:18.924Z,2.83
2022-10-30T14:27:04.449Z,7.97
2022-10-30T14:29:34.985Z,9.38
2022-10-30T14:32:17.004Z,9.98
2022-10-30T14:34:49.939Z,6.25
2022-10-30T14:37:36.891Z,5.05
2022-10-30T14:41:07.103Z,4.75
2022-10-30T14:43:57.142Z,5.18
2022-10-30T14:46:54.516Z,6.72
2022-10-30T14:49:49.337Z,6.10
2022-10-30T14:52:36.020Z,4.20
2022-10-30T14:55:30.425Z,6.72
2022-10-30T14:58:03.573Z,4.28
2022-10-30T15:00:34.395Z,9.20
2022-10-30T15:03:18.307Z,11.02
2022-10-30T15:05:58.103Z,9.07
2022-10-30T15:08:53.026Z,8.85
2022-10-30T15:11:30.649Z,6.60
2022-10-30T15:14:40.094Z,10.55
2022-10-30T15:17:24.983Z,13.57
2022-10-30T15:22:22.688Z,7.80
2022-10-30T15:24:51.256Z,11.02
2022-10-30T15:27:21.300Z,11.88
2022-10-30T15:30:01.838Z,12.15
2022-10-30T15:32:29.044Z,7.80
2022-10-30T15:35:03.153Z,12.50
2022-10-30T15:37:31.005Z,36.20
2022-10-30T15:40:16.070Z,20.17
2022-10-30T15:42:44.547Z,15.65
2022-10-30T15:45:25.385Z,10.93
2022-10-30T15:48:04.750Z,13.85
2022-10-30T15:50:34.395Z,20.92
2022-10-30T15:53:02.129Z,30.15
2022-10-30T15:55:31.882Z,23.40
2022-10-30T15:58:13.046Z,16.00
2022-10-30T16:00:40.531Z,16.33
2022-10-30T16:03:13.809Z,11.90
2022-10-30T16:05:40.963Z,11.65
2022-10-30T16:08:26.129Z,9.18
2022-10-30T16:10:54.680Z,10.02
2022-10-30T16:13:41.825Z,22.83
2022-10-30T16:16:18.540Z,26.65
2022-10-30T16:18:45.947Z,21.52
2022-10-30T16:21:17.834Z,33.88
2022-10-30T16:23:52.456Z,29.67
2022-10-30T16:26:38.355Z,24.00
2022-10-30T16:29:17.854Z,27.00
2022-10-30T16:31:49.142Z,19.40
2022-10-30T16:34:31.114Z,23.58
2022-10-30T16:36:59.465Z,36.15
2022-10-30T16:39:28.358Z,25.95
2022-10-30T16:44:35.462Z,17.25
2022-10-30T16:47:17.747Z,17.83
2022-10-30T16:49:50.981Z,16.30
2022-10-30T16:52:24.907Z,15.93
2022-10-30T16:55:03.550Z,10.90
2022-10-30T16:57:40.967Z,21.35
2022-10-30T17:00:25.998Z,11.18
2022-10-30T17:02:57.299Z,14.45
2022-10-30T17:05:33.336Z,11.30
2022-10-30T17:08:10.026Z,8.32
2022-10-30T17:11:00.908Z,9.93
2022-10-30T17:13:36.877Z,13.98
2022-10-30T17:16:27.427Z,10.55
2022-10-30T17:19:30.595Z,16.58
2022-10-30T17:22:09.690Z,28.00
2022-10-30T17:24:37.992Z,19.42
2022-10-30T17:27:24.590Z,22.85
2022-10-30T17:29:53.080Z,20.42
2022-10-30T17:32:40.608Z,20.02
2022-10-30T17:35:18.829Z,23.38
2022-10-30T17:37:46.340Z,17.02
2022-10-30T17:40:14.706Z,19.05
2022-10-30T17:42:41.899Z,16.45
2022-10-30T17:45:14.396Z,26.23
2022-10-30T17:47:41.597Z,16.88
2022-10-30T17:50:09.212Z,16.50
2022-10-30T17:52:36.407Z,19.13
2022-10-30T17:55:21.366Z,15.95
2022-10-30T17:57:48.703Z,23.75
2022-10-30T18:00:16.226Z,18.65
2022-10-30T18:02:43.490Z,19.85
2022-10-30T18:05:21.821Z,21.95
2022-10-30T18:10:17.390Z,21.63
2022-10-30T18:12:44.653Z,33.42
2022-10-30T18:15:38.689Z,16.85
2022-10-30T18:18:05.927Z,30.00
2022-10-30T18:20:33.847Z,36.97
2022-10-30T18:23:01.568Z,35.55
2022-10-30T18:25:36.221Z,34.83
2022-10-30T18:28:03.617Z,45.92
2022-10-30T18:30:30.925Z,53.20
2022-10-30T18:32:58.588Z,33.08
2022-10-30T18:35:35.777Z,28.13
2022-10-30T18:38:04.309Z,30.60
2022-10-30T18:40:32.260Z,30.02
2022-10-30T18:43:00.776Z,32.70
2022-10-30T18:45:34.883Z,26.23
2022-10-30T18:48:02.882Z,32.45
2022-10-30T18:50:31.148Z,24.80
2022-10-30T18:52:59.366Z,22.00
2022-10-30T18:55:39.275Z,31.87
2022-10-30T18:58:07.972Z,27.95
2022-10-30T19:00:58.134Z,23.88
2022-10-30T19:03:24.065Z,31.05
2022-10-30T19:05:51.656Z,36.47
2022-10-30T19:08:18.945Z,35.28
2022-10-30T19:10:47.209Z,26.73
2022-10-30T19:13:18.551Z,16.37
2022-10-30T19:15:49.880Z,18.17
2022-10-30T19:18:18.484Z,22.25
2022-10-30T19:21:13.080Z,29.77
2022-10-30T19:23:33.177Z,35.92
2022-10-30T19:26:00.511Z,25.50
2022-10-30T19:28:29.403Z,29.55
2022-10-30T19:30:56.504Z,34.45
2022-10-30T19:33:24.530Z,33.67
2022-10-30T19:35:58.242Z,25.58
2022-10-30T19:38:25.514Z,35.47
2022-10-30T19:40:52.934Z,22.92
2022-10-30T19:43:20.135Z,30.50
2022-10-30T19:45:51.305Z,29.75
2022-10-30T19:48:40.605Z,63.95
2022-10-30T19:51:10.825Z,44.67
2022-10-30T19:53:39.038Z,33.00
2022-10-30T19:56:08.932Z,37.45
2022-10-30T19:58:35.976Z,36.25
2022-10-30T20:01:03.187Z,24.10
2022-10-30T20:03:30.452Z,28.15
2022-10-30T20:05:57.925Z,32.17
2022-10-30T20:08:25.827Z,23.35
2022-10-30T20:10:57.913Z,28.55
2022-10-30T20:13:27.012Z,26.80
2022-10-30T20:15:57.615Z,26.00
2022-10-30T20:18:29.681Z,23.23
2022-10-30T20:21:03.604Z,21.88
2022-10-30T20:23:31.297Z,35.55
2022-10-30T20:26:14.930Z,24.27
2022-10-30T20:28:44.149Z,30.05
2022-10-30T20:31:12.385Z,19.48
2022-10-30T20:33:39.918Z,19.80
2022-10-30T20:36:09.835Z,29.08
2022-10-30T20:38:36.949Z,24.42
2022-10-30T20:41:06.284Z,27.73
2022-10-30T20:43:37.423Z,28.35
2022-10-30T20:46:09.348Z,39.67
2022-10-30T20:48:37.403Z,27.38
2022-10-30T20:51:06.080Z,34.72
2022-10-30T20:53:33.412Z,23.73
2022-10-30T20:56:00.745Z,21.65
2022-10-30T20:58:28.310Z,27.25
2022-10-30T21:00:59.145Z,31.30
2022-10-30T21:03:26.963Z,29.48
2022-10-30T21:05:59.915Z,27.65
2022-10-30T21:08:30.790Z,29.90
2022-10-30T21:10:59.745Z,22.02
2022-10-30T21:13:27.892Z,25.77
2022-10-30T21:15:59.613Z,16.30
2022-10-30T21:18:26.798Z,19.98
2022-10-30T21:20:53.922Z,19.67
2022-10-30T21:23:21.055Z,21.67
2022-10-30T21:25:48.197Z,24.23
2022-10-30T21:28:15.441Z,19.52
2022-10-30T21:30:42.567Z,21.77
2022-10-30T21:33:09.782Z,36.08
2022-10-30T21:35:36.975Z,30.33
2022-10-30T21:38:05.088Z,37.15
2022-10-30T21:40:32.464Z,35.97
2022-10-30T21:43:03.131Z,32.58
2022-10-30T21:45:31.560Z,19.55
2022-10-30T21:47:58.662Z,19.20
2022-10-30T21:50:25.816Z,24.33
2022-10-30T21:52:52.940Z,20.23
2022-10-30T21:55:20.083Z,14.57
2022-10-30T21:57:47.196Z,15.77
2022-10-30T22:00:15.185Z,17.58
2022-10-30T22:02:42.271Z,23.08
2022-10-30T22:05:09.479Z,25.48
2022-10-30T22:07:36.671Z,52.78
2022-10-30T22:10:04.452Z,36.15
2022-10-30T22:12:31.509Z,24.50
2022-10-30T22:14:58.664Z,18.73
2022-10-30T22:17:29.417Z,20.48
2022-10-30T22:19:59.530Z,17.00
2022-10-30T22:22:28.425Z,21.08
2022-10-30T22:24:55.675Z,22.80
2022-10-30T22:27:22.845Z,20.42
2022-10-30T22:29:49.996Z,25.38
2022-10-30T22:32:17.288Z,19.90
2022-10-30T22:34:44.390Z,18.65
2022-10-30T22:37:11.576Z,17.88
2022-10-30T22:39:38.690Z,17.83
2022-10-30T22:42:05.843Z,18.45
2022-10-30T22:44:32.904Z,17.23
2022-10-30T22:47:00.078Z,16.60
2022-10-30T22:49:27.234Z,19.23
2022-10-30T22:51:54.384Z,20.00
2022-10-30T22:54:21.507Z,21.75
2022-10-30T22:56:48.595Z,26.80
2022-10-30T22:59:15.691Z,22.17
2022-10-30T23:01:43.511Z,22.88
2022-10-30T23:04:13.470Z,23.77
2022-10-30T23:06:41.115Z,10.27
2022-10-30T23:09:17.735Z,31.25
2022-10-30T23:11:45.126Z,14.43
2022-10-30T23:14:12.298Z,18.40
2022-10-30T23:16:39.714Z,14.13
2022-10-30T23:19:07.846Z,24.75
2022-10-30T23:21:35.033Z,26.10
2022-10-30T23:24:03.859Z,28.38
2022-10-30T23:26:34.598Z,23.63
2022-10-30T23:29:02.800Z,28.08
2022-10-30T23:31:34.613Z,32.78
2022-10-30T23:34:06.128Z,22.52
2022-10-30T23:36:33.546Z,20.85
2022-10-30T23:39:05.279Z,31.70
2022-10-30T23:41:35.928Z,21.70
2022-10-30T23:44:06.768Z,24.25
2022-10-30T23:46:35.202Z,26.67
2022-10-30T23:49:03.825Z,33.83
2022-10-30T23:51:31.426Z,29.90
2022-10-30T23:53:58.580Z,27.25
2022-10-30T23:56:27.245Z,25.50
2022-10-30T23:58:54.987Z,27.00
